createdAt,value
2018-12-26T00:01:19.936Z,82047.02
2018-12-26T00:06:24.344Z,82037.23
2018-12-26T00:11:28.774Z,82037.72
2018-12-26T00:16:32.806Z,82037.95
2018-12-26T00:21:37.475Z,82034.67
2018-12-26T00:26:41.846Z,82023.39
2018-12-26T00:31:46.200Z,82026.31
2018-12-26T00:36:50.534Z,82024.59
2018-12-26T00:41:54.623Z,82021.16
2018-12-26T00:46:58.919Z,82014.44
2018-12-26T00:52:03.238Z,82019.20
2018-12-26T00:57:07.275Z,82015.16
2018-12-26T01:02:11.621Z,82007.56
2018-12-26T01:07:15.979Z,82008.65
2018-12-26T01:12:20.638Z,82000.92
2018-12-26T01:17:25.015Z,81999.75
2018-12-26T01:22:29.393Z,81987.62
2018-12-26T01:27:33.767Z,81989.44
2018-12-26T01:32:37.850Z,81988.64
2018-12-26T01:37:42.198Z,81984.55
2018-12-26T01:42:46.603Z,81984.38
2018-12-26T01:47:50.939Z,81985.20
2018-12-26T01:52:55.308Z,81982.53
2018-12-26T01:57:59.390Z,81981.60
2018-12-26T02:03:03.733Z,81976.70
2018-12-26T02:08:08.106Z,81978.41
2018-12-26T02:13:12.186Z,81968.31
2018-12-26T02:18:16.515Z,81967.92
2018-12-26T02:23:20.882Z,81962.63
2018-12-26T02:28:25.663Z,81959.52
2018-12-26T02:33:30.043Z,81956.84
2018-12-26T02:38:34.682Z,81951.95
2018-12-26T02:43:39.053Z,81949.69
2018-12-26T02:48:43.207Z,81940.38
2018-12-26T02:53:47.600Z,81941.60
2018-12-26T02:58:51.977Z,81938.17
2018-12-26T03:03:56.653Z,81936.81
2018-12-26T03:09:01.033Z,81928.29
2018-12-26T03:14:05.419Z,81923.78
2018-12-26T03:19:09.495Z,81924.35
2018-12-26T03:24:13.583Z,81924.39
2018-12-26T03:29:18.236Z,81918.55
2018-12-26T03:34:22.333Z,81909.52
2018-12-26T03:39:26.380Z,81910.00
2018-12-26T03:44:31.487Z,81912.52
2018-12-26T03:49:35.839Z,81917.24
2018-12-26T03:54:39.870Z,81919.89
2018-12-26T03:59:44.202Z,81916.80
2018-12-26T04:04:48.286Z,81914.18
2018-12-26T04:09:52.309Z,81914.18
2018-12-26T04:14:56.363Z,81910.93
2018-12-26T04:20:00.820Z,81902.80
2018-12-26T04:25:05.174Z,81895.53
2018-12-26T04:30:10.152Z,81898.87
2018-12-26T04:35:14.816Z,81890.38
2018-12-26T04:40:19.191Z,81885.79
2018-12-26T04:45:23.282Z,81879.42
2018-12-26T04:50:27.350Z,81879.85
2018-12-26T04:55:31.960Z,81877.23
2018-12-26T05:00:36.348Z,81876.91
2018-12-26T05:05:41.043Z,81874.86
2018-12-26T05:10:45.132Z,81875.24
2018-12-26T05:15:49.180Z,81875.48
2018-12-26T05:20:53.838Z,81877.80
2018-12-26T05:25:58.484Z,81876.22
2018-12-26T05:31:02.873Z,81880.67
2018-12-26T05:36:06.968Z,81880.70
2018-12-26T05:41:11.318Z,81878.92
2018-12-26T05:46:15.398Z,81873.00
2018-12-26T05:51:20.065Z,81868.05
2018-12-26T05:56:24.452Z,81870.72
2018-12-26T06:01:28.787Z,81870.98
2018-12-26T06:06:33.483Z,81872.73
2018-12-26T06:11:37.570Z,81871.39
2018-12-26T06:16:41.648Z,81875.73
2018-12-26T06:21:45.991Z,81881.44
2018-12-26T06:26:50.085Z,81875.95
2018-12-26T06:31:54.138Z,81873.17
2018-12-26T06:36:58.577Z,81871.25
2018-12-26T06:42:02.923Z,81879.28
2018-12-26T06:47:07.322Z,81871.59
2018-12-26T06:52:11.670Z,81866.63
2018-12-26T06:57:15.766Z,81871.48
2018-12-26T07:02:20.110Z,81865.97
2018-12-26T07:07:24.804Z,81868.34
2018-12-26T07:12:29.443Z,81870.36
2018-12-26T07:17:33.549Z,81880.94
2018-12-26T07:22:37.600Z,81881.14
2018-12-26T07:27:42.357Z,81884.60
2018-12-26T07:32:46.475Z,81873.23
2018-12-26T07:37:50.874Z,81882.16
2018-12-26T07:42:54.934Z,81888.64
2018-12-26T07:47:59.284Z,81895.49
2018-12-26T07:53:03.669Z,81899.39
2018-12-26T07:58:08.069Z,81899.26
2018-12-26T08:03:12.450Z,81900.34
2018-12-26T08:08:17.042Z,81906.84
2018-12-26T08:13:21.435Z,81917.05
2018-12-26T08:18:25.831Z,81922.50
2018-12-26T08:23:29.898Z,81924.39
2018-12-26T08:28:34.492Z,81933.70
2018-12-26T08:33:38.871Z,81948.11
2018-12-26T08:38:43.375Z,81965.49
2018-12-26T08:43:47.946Z,81985.17
2018-12-26T08:48:52.651Z,82010.82
2018-12-26T08:53:57.041Z,82036.19
2018-12-26T08:59:01.389Z,82051.56
2018-12-26T09:04:05.803Z,82041.05
2018-12-26T09:09:09.895Z,82048.00
2018-12-26T09:14:13.941Z,82071.45
2018-12-26T09:19:18.521Z,82072.08
2018-12-26T09:24:22.614Z,82071.45
2018-12-26T09:29:26.702Z,82093.09
2018-12-26T09:34:31.013Z,82098.72
2018-12-26T09:39:35.610Z,82104.07
2018-12-26T09:44:39.706Z,82129.13
2018-12-26T09:49:44.049Z,82137.22
2018-12-26T09:54:49.332Z,82144.83
2018-12-26T09:59:53.846Z,82158.56
2018-12-26T10:04:57.960Z,82173.02
2018-12-26T10:10:02.294Z,82178.77
2018-12-26T10:15:09.126Z,82215.49
2018-12-26T10:20:13.882Z,82243.91
2018-12-26T10:25:17.975Z,82304.41
2018-12-26T10:30:22.032Z,82326.16
2018-12-26T10:35:26.126Z,82338.20
2018-12-26T10:40:30.196Z,82343.52
2018-12-26T10:45:34.525Z,82345.64
2018-12-26T10:50:38.899Z,82358.23
2018-12-26T10:55:43.556Z,82367.18
2018-12-26T11:00:47.712Z,82383.19
2018-12-26T11:05:52.007Z,82396.77
2018-12-26T11:10:56.345Z,82406.50
2018-12-26T11:16:00.873Z,82430.53
2018-12-26T11:21:05.246Z,82445.48
2018-12-26T11:26:09.338Z,82449.19
2018-12-26T11:31:13.730Z,82457.20
2018-12-26T11:36:18.322Z,82462.87
2018-12-26T11:41:23.064Z,82470.36
2018-12-26T11:46:27.707Z,82473.88
2018-12-26T11:51:31.794Z,82486.05
2018-12-26T11:56:36.128Z,82497.48
2018-12-26T12:01:40.500Z,82505.52
2018-12-26T12:06:45.150Z,82522.47
2018-12-26T12:11:50.079Z,82537.34
2018-12-26T12:16:54.360Z,82556.05
2018-12-26T12:21:58.732Z,82575.87
2018-12-26T12:27:03.107Z,82601.19
2018-12-26T12:32:07.214Z,82619.21
2018-12-26T12:37:11.602Z,82629.60
2018-12-26T12:42:16.328Z,82639.47
2018-12-26T12:47:20.972Z,82645.34
2018-12-26T12:52:25.453Z,82648.03
2018-12-26T12:57:32.412Z,82648.44
2018-12-26T13:02:36.803Z,82656.89
2018-12-26T13:07:41.242Z,82666.83
2018-12-26T13:13:04.926Z,82671.58
2018-12-26T13:18:09.266Z,82682.89
2018-12-26T13:23:13.735Z,82674.83
2018-12-26T13:28:17.859Z,82676.42
2018-12-26T13:33:41.242Z,82675.50
2018-12-26T13:38:45.301Z,82677.89
2018-12-26T13:43:49.613Z,82677.85
2018-12-26T13:48:53.951Z,82686.81
2018-12-26T13:53:58.427Z,82704.29
2018-12-26T13:59:02.760Z,82709.47
2018-12-26T14:04:06.861Z,82713.08
2018-12-26T14:09:11.266Z,82716.35
2018-12-26T14:14:15.319Z,82717.28
2018-12-26T14:19:19.665Z,82715.09
2018-12-26T14:24:26.235Z,82716.66
2018-12-26T14:29:30.147Z,82722.82
2018-12-26T14:34:34.515Z,82722.36
2018-12-26T14:39:39.135Z,82705.95
2018-12-26T14:44:43.778Z,82699.56
2018-12-26T14:49:48.165Z,82689.72
2018-12-26T14:54:52.543Z,82670.25
2018-12-26T14:59:56.876Z,82656.36
2018-12-26T15:05:00.938Z,82645.23
2018-12-26T15:10:06.108Z,82631.55
2018-12-26T15:15:10.199Z,82623.99
2018-12-26T15:20:14.268Z,82610.06
2018-12-26T15:25:18.322Z,82591.79
2018-12-26T15:30:29.222Z,82579.08
2018-12-26T15:35:33.567Z,82563.19
2018-12-26T15:40:37.959Z,82546.16
2018-12-26T15:45:42.384Z,82517.77
2018-12-26T15:50:46.735Z,82499.55
2018-12-26T15:55:51.527Z,82485.81
2018-12-26T16:00:55.915Z,82472.22
2018-12-26T16:06:00.352Z,82469.27
2018-12-26T16:11:04.699Z,82450.23
2018-12-26T16:16:08.811Z,82437.56
2018-12-26T16:21:12.895Z,82417.41
2018-12-26T16:26:17.542Z,82402.98
2018-12-26T16:31:22.169Z,82384.02
2018-12-26T16:36:26.630Z,82373.38
2018-12-26T16:41:30.992Z,82358.17
2018-12-26T16:46:35.372Z,82347.56
2018-12-26T16:51:39.790Z,82341.70
2018-12-26T16:56:44.130Z,82314.69
2018-12-26T17:01:48.179Z,82305.98
2018-12-26T17:06:52.520Z,82305.38
2018-12-26T17:11:56.895Z,82301.08
2018-12-26T17:17:00.997Z,82293.55
2018-12-26T17:22:05.404Z,82284.81
2018-12-26T17:27:10.094Z,82263.61
2018-12-26T17:32:15.239Z,82256.39
2018-12-26T17:37:19.589Z,82260.11
2018-12-26T17:42:23.665Z,82275.27
2018-12-26T17:47:27.699Z,82273.32
2018-12-26T17:52:32.035Z,82278.25
2018-12-26T17:57:36.067Z,82266.73
2018-12-26T18:02:40.113Z,82261.86
2018-12-26T18:07:44.429Z,82252.78
2018-12-26T18:12:49.125Z,82238.67
2018-12-26T18:17:53.500Z,82225.27
2018-12-26T18:22:57.905Z,82219.86
2018-12-26T18:28:01.982Z,82218.80
2018-12-26T18:33:06.022Z,82212.98
2018-12-26T18:38:10.077Z,82214.87
2018-12-26T18:43:14.739Z,82210.92
2018-12-26T18:48:19.104Z,82209.28
2018-12-26T18:53:23.188Z,82198.83
2018-12-26T18:58:27.844Z,82198.50
2018-12-26T19:03:31.915Z,82198.14
2018-12-26T19:08:36.266Z,82194.03
2018-12-26T19:13:40.603Z,82189.77
2018-12-26T19:18:44.939Z,82188.83
2018-12-26T19:23:49.266Z,82191.70
2018-12-26T19:28:53.346Z,82189.00
2018-12-26T19:33:57.636Z,82176.28
2018-12-26T19:39:01.973Z,82171.86
2018-12-26T19:44:06.319Z,82169.20
2018-12-26T19:49:10.660Z,82167.18
2018-12-26T19:54:14.992Z,82166.09
2018-12-26T19:59:19.322Z,82167.41
2018-12-26T20:04:23.801Z,82161.83
2018-12-26T20:09:28.233Z,82165.10
2018-12-26T20:14:32.562Z,82156.96
2018-12-26T20:19:36.976Z,82155.59
2018-12-26T20:24:41.574Z,82148.35
2018-12-26T20:29:45.963Z,82145.24
2018-12-26T20:34:50.395Z,82140.84
2018-12-26T20:39:54.740Z,82139.91
2018-12-26T20:44:58.820Z,82153.74
2018-12-26T20:50:03.109Z,82151.69
2018-12-26T20:55:07.229Z,82147.98
2018-12-26T21:00:11.575Z,82143.87
2018-12-26T21:05:15.906Z,82141.63
2018-12-26T21:10:20.286Z,82141.16
2018-12-26T21:15:24.375Z,82142.86
2018-12-26T21:20:28.972Z,82144.36
2018-12-26T21:25:33.343Z,82143.25
2018-12-26T21:30:37.727Z,82149.31
2018-12-26T21:35:42.318Z,82160.99
2018-12-26T21:40:46.672Z,82165.63
2018-12-26T21:45:51.004Z,82180.63
2018-12-26T21:50:55.382Z,82191.34
2018-12-26T21:55:59.747Z,82202.04
2018-12-26T22:01:03.837Z,82206.91
2018-12-26T22:06:08.552Z,82205.19
2018-12-26T22:11:13.141Z,82209.89
2018-12-26T22:16:17.534Z,82216.48
2018-12-26T22:21:21.860Z,82222.64
2018-12-26T22:26:26.207Z,82225.42
2018-12-26T22:31:30.527Z,82224.33
2018-12-26T22:36:34.629Z,82228.73
2018-12-26T22:41:38.985Z,82234.00
2018-12-26T22:46:43.377Z,82241.42
2018-12-26T22:51:47.793Z,82240.82
2018-12-26T22:56:51.854Z,82236.72
2018-12-26T23:01:56.509Z,82229.17
2018-12-26T23:07:00.906Z,82230.27
2018-12-26T23:12:04.999Z,82235.89
2018-12-26T23:17:09.630Z,82242.91
2018-12-26T23:22:13.730Z,82244.00
2018-12-26T23:27:18.402Z,82237.16
2018-12-26T23:32:22.796Z,82234.83
2018-12-26T23:37:27.183Z,82241.58
2018-12-26T23:42:31.568Z,82248.73
2018-12-26T23:47:35.660Z,82256.48
2018-12-26T23:52:40.034Z,82262.31
2018-12-26T23:57:44.093Z,82276.27
